Time;durP1;ratioP1;P1;durP2;ratioP2;P2;SDS_P1;SDS_P2;PMS_P1;PMS_P2;Temp;Humidity;BMP_temperature;BMP_pressure;BME280_temperature;BME280_humidity;BME280_pressure;Samples;Min_cycle;Max_cycle;Signal;HPM_P1;HPM_P2
2022/07/20 00:00:12;;;;;;;7.80;7.00;;;22.90;1.00;;;23.14;46.82;101280.59;4854718;29;20421;-70
2022/07/20 00:02:41;;;;;;;8.13;7.20;;;22.90;1.00;;;23.16;46.73;101283.09;4851802;29;20472;-70
2022/07/20 00:05:10;;;;;;;10.57;7.77;;;22.90;1.00;;;23.18;46.43;101286.41;4853790;29;20456;-70
2022/07/20 00:07:39;;;;;;;10.73;7.40;;;22.90;1.00;;;23.06;46.86;101294.13;4855968;29;20908;-70
2022/07/20 00:12:56;;;;;;;5.97;5.37;;;22.80;1.00;;;22.94;47.36;101281.47;4855663;29;20490;-70
2022/07/20 00:15:26;;;;;;;9.50;6.30;;;22.70;1.00;;;23.02;47.21;101287.50;4855180;29;20415;-70
2022/07/20 00:17:54;;;;;;;7.70;6.40;;;22.70;1.00;;;22.99;47.38;101288.06;4854720;29;20517;-69
2022/07/20 00:20:23;;;;;;;8.00;6.20;;;22.70;1.00;;;22.94;47.50;101286.97;4856013;29;21200;-69
2022/07/20 00:22:52;;;;;;;11.53;8.63;;;22.70;1.00;;;22.84;47.83;101291.66;4856646;29;20446;-69
2022/07/20 00:25:21;;;;;;;9.90;5.90;;;22.60;1.00;;;22.74;48.44;101297.97;4861909;29;20487;-69
2022/07/20 00:27:50;;;;;;;8.00;5.90;;;22.60;1.00;;;22.62;48.73;101297.34;4862491;29;20959;-69
2022/07/20 00:30:19;;;;;;;12.83;7.87;;;22.50;1.00;;;22.52;48.69;101294.56;4860300;29;20487;-69
2022/07/20 00:32:50;;;;;;;9.70;6.80;;;22.40;1.00;;;22.50;48.71;101291.28;4857760;29;20973;-69
2022/07/20 00:35:18;;;;;;;12.00;7.40;;;22.30;1.00;;;22.48;49.07;101282.44;4854862;29;20467;-69
2022/07/20 00:37:47;;;;;;;9.47;7.27;;;22.30;1.00;;;22.52;48.79;101286.28;4862846;29;20422;-70
2022/07/20 00:40:16;;;;;;;8.53;7.20;;;22.30;1.00;;;22.52;49.06;101280.78;4862933;29;20506;-69
2022/07/20 00:42:45;;;;;;;10.13;7.13;;;22.30;1.00;;;22.43;49.02;101279.66;4859577;29;20545;-69
2022/07/20 00:45:14;;;;;;;8.93;6.53;;;22.20;1.00;;;22.47;49.11;101283.53;4858950;29;20538;-70
2022/07/20 00:47:42;;;;;;;7.83;5.63;;;22.20;1.00;;;22.47;49.09;101280.75;4864224;29;20429;-69
2022/07/20 00:50:13;;;;;;;8.70;6.70;;;22.20;1.00;;;22.47;49.28;101280.75;4855509;29;20480;-69
2022/07/20 00:52:42;;;;;;;9.47;6.57;;;22.20;1.00;;;22.45;49.02;101271.94;4860017;29;20532;-69
2022/07/20 00:55:11;;;;;;;9.23;6.07;;;22.20;1.00;;;22.46;49.21;101273.63;4856603;29;21063;-69
2022/07/20 00:57:40;;;;;;;7.43;6.23;;;22.20;1.00;;;22.44;49.23;101275.81;4851937;29;20518;-69
2022/07/20 01:00:12;;;;;;;11.47;6.07;;;22.20;1.00;;;22.37;49.35;101275.22;4857886;29;20547;-68
2022/07/20 01:02:42;;;;;;;8.27;5.93;;;22.20;1.00;;;22.40;49.57;101272.78;4859122;29;20473;-71
2022/07/20 01:05:14;;;;;;;6.90;5.80;;;22.20;1.00;;;22.25;49.80;101266.38;4856063;29;20489;-71
2022/07/20 01:07:45;;;;;;;6.27;5.17;;;22.10;1.00;;;22.21;50.01;101259.75;4855084;29;20479;-69
2022/07/20 01:10:15;;;;;;;6.80;5.60;;;22.00;1.00;;;22.18;50.07;101254.75;4855309;29;20521;-70
2022/07/20 01:12:47;;;;;;;6.00;5.17;;;22.00;1.00;;;22.13;49.89;101249.22;4855612;29;20974;-69
2022/07/20 01:15:17;;;;;;;8.10;5.97;;;21.90;1.00;;;22.10;50.00;101243.16;4855655;29;20468;-70
2022/07/20 01:17:46;;;;;;;7.00;5.27;;;21.90;1.00;;;22.12;49.94;101242.09;4861446;29;20448;-69
2022/07/20 01:20:19;;;;;;;7.67;5.50;;;21.90;1.00;;;22.10;49.95;101237.66;4856600;29;20429;-68
2022/07/20 01:22:50;;;;;;;8.63;5.57;;;21.90;1.00;;;22.14;49.78;101237.09;4856169;29;20540;-70
2022/07/20 01:25:18;;;;;;;7.93;6.37;;;21.90;1.00;;;22.23;49.51;101241.00;4858173;29;20533;-70
2022/07/20 01:27:47;;;;;;;7.30;5.60;;;21.90;1.00;;;22.19;49.73;101237.13;4854730;29;20441;-68
2022/07/20 01:30:16;;;;;;;6.80;5.80;;;22.00;1.00;;;22.13;49.96;101249.22;4857201;29;20491;-68
2022/07/20 01:32:45;;;;;;;9.17;7.17;;;21.90;1.00;;;22.20;49.61;101247.06;4858031;29;20443;-69
2022/07/20 01:35:13;;;;;;;6.77;6.10;;;21.90;1.00;;;22.13;49.76;101257.50;4857389;29;20421;-70
2022/07/20 01:37:42;;;;;;;6.63;5.60;;;21.90;1.00;;;22.05;50.06;101250.59;4858696;29;20415;-68
2022/07/20 01:40:14;;;;;;;7.00;6.07;;;21.90;1.00;;;22.09;50.14;101252.53;4853673;29;20794;-69
2022/07/20 01:42:43;;;;;;;7.30;5.67;;;21.90;1.00;;;22.07;50.26;101246.44;4855867;29;20447;-69
2022/07/20 01:45:12;;;;;;;10.30;6.60;;;21.80;1.00;;;22.04;50.14;101254.44;4856535;29;20480;-69
2022/07/20 01:47:41;;;;;;;6.57;5.70;;;21.80;1.00;;;22.04;50.40;101255.28;4852396;29;20801;-69
2022/07/20 01:50:11;;;;;;;12.03;6.70;;;21.80;1.00;;;21.99;50.44;101252.50;4857002;29;20524;-70
2022/07/20 01:52:40;;;;;;;8.40;6.13;;;21.80;1.00;;;21.90;50.80;101254.06;4868245;29;20451;-69
2022/07/20 01:55:10;;;;;;;8.13;6.10;;;21.70;1.00;;;21.78;51.05;101250.72;4858033;29;20479;-70
2022/07/20 01:57:41;;;;;;;7.07;6.37;;;21.60;1.00;;;21.69;51.41;101250.38;4861384;29;20486;-70
2022/07/20 02:00:13;;;;;;;8.00;6.37;;;21.50;1.00;;;21.61;51.46;101250.91;4860316;29;20944;-72
2022/07/20 02:02:49;;;;;;;6.87;5.97;;;21.50;1.00;;;21.63;51.59;101245.13;4861198;29;20441;-69
2022/07/20 02:05:20;;;;;;;9.13;8.10;;;21.40;1.00;;;21.61;51.79;101239.88;4857545;29;20502;-69
2022/07/20 02:07:49;;;;;;;11.33;7.80;;;21.40;1.00;;;21.57;51.81;101236.00;4860989;29;20850;-69
2022/07/20 02:10:18;;;;;;;11.80;7.87;;;21.40;1.00;;;21.53;51.68;101232.13;4859613;29;20447;-69
2022/07/20 02:12:48;;;;;;;8.47;7.33;;;21.30;1.00;;;21.45;52.23;101231.78;4863532;29;20446;-69
2022/07/20 02:18:06;;;;;;;10.50;6.33;;;21.20;1.00;;;21.50;51.77;101220.81;4856875;29;20438;-69
2022/07/20 02:20:36;;;;;;;7.40;5.73;;;21.30;1.00;;;21.44;51.82;101222.72;4859019;29;20455;-69
2022/07/20 02:23:07;;;;;;;10.30;6.87;;;21.20;1.00;;;21.41;52.41;101223.22;4859423;29;20451;-69
2022/07/20 02:25:38;;;;;;;7.83;6.40;;;21.20;1.00;;;21.30;52.44;101223.47;4861404;29;20475;-70
2022/07/20 02:28:09;;;;;;;8.30;6.90;;;21.10;1.00;;;21.13;52.84;101226.31;4857574;29;20548;-70
2022/07/20 02:30:38;;;;;;;12.70;7.30;;;21.00;1.00;;;20.98;53.14;101229.78;4858752;29;20950;-70
2022/07/20 02:33:07;;;;;;;7.70;6.27;;;20.90;1.00;;;20.83;53.72;101221.41;4859170;29;20481;-70
2022/07/20 02:35:36;;;;;;;8.10;6.67;;;20.80;1.00;;;20.73;54.30;101221.31;4858051;29;20555;-70
2022/07/20 02:38:05;;;;;;;7.37;6.60;;;20.70;1.00;;;20.62;54.46;101225.09;4860443;29;20458;-70
2022/07/20 02:40:34;;;;;;;14.37;7.27;;;20.60;1.00;;;20.52;54.49;101224.97;4858179;29;20452;-71
2022/07/20 02:43:05;;;;;;;9.73;6.20;;;20.50;1.00;;;20.43;55.22;101221.84;4858710;29;20534;-70
2022/07/20 02:45:35;;;;;;;10.53;7.47;;;20.40;1.00;;;20.36;55.12;101229.47;4855316;29;20454;-70
2022/07/20 02:48:06;;;;;;;9.20;6.67;;;20.30;1.00;;;20.31;55.65;101222.00;4858002;29;20480;-71
2022/07/20 02:50:38;;;;;;;11.43;6.60;;;20.30;1.00;;;20.30;56.26;101220.34;4852985;29;20851;-70
2022/07/20 02:53:08;;;;;;;9.10;7.20;;;20.20;1.00;;;20.26;56.27;101224.69;4859564;29;20575;-70
2022/07/20 02:55:38;;;;;;;7.30;6.60;;;20.20;1.00;;;20.22;56.20;101226.28;4854551;29;20474;-69
2022/07/20 02:58:07;;;;;;;12.47;7.73;;;20.20;1.00;;;20.26;56.29;101221.94;4856085;29;20476;-69
2022/07/20 03:00:39;;;;;;;8.83;7.07;;;20.20;1.00;;;20.36;55.89;101219.31;4858846;29;20452;-70
2022/07/20 03:03:09;;;;;;;8.73;7.53;;;20.20;1.00;;;20.33;56.33;101224.50;4858166;29;20475;-70
2022/07/20 03:05:39;;;;;;;11.53;7.50;;;20.20;1.00;;;20.38;56.05;101219.88;4871296;29;20949;-70
2022/07/20 03:08:09;;;;;;;9.83;7.13;;;20.20;1.00;;;20.44;55.93;101226.25;4858703;29;20448;-70
2022/07/20 03:10:38;;;;;;;8.67;7.70;;;20.30;1.00;;;20.39;55.88;101224.28;4855495;29;20453;-70
2022/07/20 03:13:07;;;;;;;6.90;6.20;;;20.20;1.00;;;20.35;56.36;101225.91;4860704;29;21038;-70
2022/07/20 03:15:38;;;;;;;9.07;6.37;;;20.20;1.00;;;20.35;56.34;101225.91;4861111;29;20448;-70
2022/07/20 03:18:07;;;;;;;9.47;7.93;;;20.20;1.00;;;20.32;56.22;101231.09;4860292;29;20448;-70
2022/07/20 03:20:36;;;;;;;9.53;7.27;;;20.20;1.00;;;20.29;56.48;101229.66;4862119;29;20459;-70
2022/07/20 03:23:06;;;;;;;10.27;9.20;;;20.10;1.00;;;20.35;56.12;101231.41;4856027;29;20660;-70
2022/07/20 03:25:35;;;;;;;10.10;8.23;;;20.20;1.00;;;20.49;55.82;101236.47;4856339;29;20545;-70
2022/07/20 03:28:04;;;;;;;11.53;7.77;;;20.20;1.00;;;20.56;56.10;101237.09;4860485;29;20478;-70
2022/07/20 03:30:33;;;;;;;9.37;8.17;;;20.30;1.00;;;20.65;55.35;101236.38;4851350;29;20456;-70
2022/07/20 03:33:04;;;;;;;9.37;6.90;;;20.40;1.00;;;20.71;55.29;101235.34;4859526;29;20490;-70
2022/07/20 03:35:33;;;;;;;12.20;7.83;;;20.40;1.00;;;20.74;55.26;101239.47;4868571;29;20422;-70
2022/07/20 03:38:01;;;;;;;10.53;7.70;;;20.40;1.00;;;20.77;55.50;101238.94;4862310;29;20454;-70
2022/07/20 03:40:31;;;;;;;8.30;7.27;;;20.50;1.00;;;20.86;55.27;101242.91;4854574;29;20422;-70
2022/07/20 03:43:00;;;;;;;9.47;7.67;;;20.50;1.00;;;21.20;54.05;101244.28;4860580;29;20435;-69
2022/07/20 03:45:29;;;;;;;12.20;7.17;;;20.70;1.00;;;21.55;53.64;101245.63;4854745;29;20456;-70
2022/07/20 03:47:58;;;;;;;9.03;7.00;;;20.80;1.00;;;21.95;53.14;101245.88;4865036;29;20439;-69
2022/07/20 03:50:28;;;;;;;9.60;7.10;;;21.10;1.00;;;22.38;51.92;101250.16;4862580;29;20977;-71
2022/07/20 03:52:57;;;;;;;10.13;7.63;;;21.40;1.00;;;22.87;50.78;101252.47;4857057;29;20974;-71
2022/07/20 03:55:26;;;;;;;9.50;8.60;;;21.60;1.00;;;23.24;49.27;101250.22;4852027;29;20466;-72
2022/07/20 03:57:55;;;;;;;8.80;7.90;;;22.00;1.00;;;23.61;48.66;101252.69;4855016;29;20996;-71
2022/07/20 04:00:24;;;;;;;8.17;7.30;;;22.30;1.00;;;24.03;47.24;101259.72;4854198;29;20459;-70
2022/07/20 04:02:53;;;;;;;8.50;7.20;;;22.60;1.00;;;24.42;46.66;101257.09;4859789;29;20987;-70
2022/07/20 04:05:22;;;;;;;8.53;7.63;;;22.80;1.00;;;24.74;46.11;101251.88;4861311;29;20449;-72
2022/07/20 04:07:53;;;;;;;13.30;9.33;;;23.10;1.00;;;25.10;45.02;101247.75;4857991;29;20480;-70
2022/07/20 04:10:21;;;;;;;9.10;7.77;;;23.40;1.00;;;25.44;45.01;101247.69;4855788;29;20770;-71
2022/07/20 04:12:52;;;;;;;9.10;7.00;;;23.40;1.00;;;25.73;44.26;101252.41;4859838;29;20443;-71
2022/07/20 04:15:22;;;;;;;10.27;8.10;;;23.70;1.00;;;26.25;43.33;101252.34;4872266;23;20425;-73
2022/07/20 04:17:51;;;;;;;12.67;10.07;;;24.20;1.00;;;26.61;42.18;101255.44;4880250;29;20422;-72
2022/07/20 04:20:20;;;;;;;11.23;10.13;;;24.50;1.00;;;26.94;41.58;101256.31;4880811;29;20454;-72
2022/07/20 04:22:49;;;;;;;10.50;9.40;;;24.80;1.00;;;26.99;40.35;101252.63;4876238;29;20458;-72
2022/07/20 04:25:22;;;;;;;12.10;7.77;;;25.10;1.00;;;27.20;39.46;101253.94;4852723;29;20446;-72
2022/07/20 04:27:52;;;;;;;10.30;9.00;;;25.40;1.00;;;27.49;39.17;101254.56;4861477;29;20977;-72
2022/07/20 04:30:21;;;;;;;9.80;8.67;;;25.40;1.00;;;27.94;38.84;101255.59;4850315;29;20471;-71
2022/07/20 04:32:50;;;;;;;10.53;9.43;;;25.60;1.00;;;28.35;38.04;101254.75;4857880;29;20567;-71
2022/07/20 04:35:20;;;;;;;8.00;7.20;;;25.80;1.00;;;28.52;38.20;101254.91;4860281;29;20444;-73
2022/07/20 04:37:49;;;;;;;8.57;7.43;;;25.90;1.00;;;28.81;37.04;101258.16;4861412;29;20419;-73
2022/07/20 04:40:19;;;;;;;7.60;7.00;;;26.10;1.00;;;29.31;36.09;101255.25;4852715;29;20456;-73
2022/07/20 04:42:48;;;;;;;8.27;6.90;;;26.50;1.00;;;29.60;35.85;101263.94;4859525;29;20578;-71
2022/07/20 04:45:18;;;;;;;11.23;6.63;;;26.90;1.00;;;29.78;34.41;101265.66;4859790;29;20448;-71
2022/07/20 04:47:47;;;;;;;9.07;7.80;;;27.10;1.00;;;29.77;34.66;101258.41;4857209;29;20546;-70
2022/07/20 04:50:16;;;;;;;8.37;7.33;;;27.30;1.00;;;30.03;34.45;101264.13;4856488;29;20443;-74
2022/07/20 04:52:46;;;;;;;10.27;8.00;;;27.30;1.00;;;30.16;34.39;101256.78;4849816;29;20549;-72
2022/07/20 04:55:16;;;;;;;9.07;7.57;;;27.20;1.00;;;30.29;33.57;101255.81;4853133;29;20454;-73
2022/07/20 04:57:46;;;;;;;9.13;7.40;;;27.40;1.00;;;30.51;33.57;101260.47;4850817;29;21147;-71
2022/07/20 05:00:16;;;;;;;9.17;7.77;;;27.30;1.00;;;30.74;33.25;101263.94;4856929;29;20468;-73
2022/07/20 05:02:45;;;;;;;11.57;7.70;;;27.60;1.00;;;30.90;33.66;101268.69;4870584;29;20458;-73
2022/07/20 05:05:16;;;;;;;8.13;6.67;;;27.60;1.00;;;31.33;32.99;101259.44;4854745;29;20801;-74
2022/07/20 05:07:45;;;;;;;9.97;7.57;;;27.90;1.00;;;31.42;33.25;101263.03;4862102;29;20455;-74
2022/07/20 05:10:14;;;;;;;8.00;6.73;;;27.90;1.00;;;31.70;31.94;101263.47;4869092;29;20450;-73
2022/07/20 05:12:43;;;;;;;8.00;7.00;;;28.10;1.00;;;31.58;31.74;101261.38;4875757;29;20465;-75
2022/07/20 05:15:13;;;;;;;8.20;7.40;;;28.20;1.00;;;31.65;31.27;101266.44;4867000;29;20451;-74
2022/07/20 05:17:42;;;;;;;7.90;7.10;;;28.40;1.00;;;31.61;32.07;101269.13;4873559;29;20830;-74
2022/07/20 05:20:12;;;;;;;14.10;7.10;;;28.40;1.00;;;31.89;31.92;101272.28;4858618;29;20508;-75
2022/07/20 05:22:41;;;;;;;8.27;7.40;;;28.40;1.00;;;32.15;30.99;101281.38;4866925;29;20569;-75
2022/07/20 05:25:11;;;;;;;10.43;7.27;;;28.60;1.00;;;32.43;30.82;101270.50;4864208;29;20439;-75
2022/07/20 05:27:40;;;;;;;7.47;6.67;;;28.70;1.00;;;32.38;30.69;101278.28;4865995;29;20487;-75
2022/07/20 05:30:10;;;;;;;8.47;6.60;;;28.70;1.00;;;32.50;30.32;101275.53;4859664;29;20447;-73
2022/07/20 05:32:41;;;;;;;12.93;7.07;;;28.70;1.00;;;32.78;29.81;101276.66;4866618;29;20906;-75
2022/07/20 05:35:11;;;;;;;8.03;6.73;;;28.90;1.00;;;32.81;29.62;101275.19;4850015;29;20466;-74
2022/07/20 05:37:40;;;;;;;12.20;8.20;;;29.10;1.00;;;32.06;30.55;101277.78;4858952;29;20440;-73
2022/07/20 05:40:13;;;;;;;9.40;7.27;;;29.10;1.00;;;30.30;33.05;101282.59;4857312;29;20470;-75
2022/07/20 05:42:42;;;;;;;9.80;7.43;;;28.70;1.00;;;28.84;35.02;101287.34;4857671;29;20471;-74
2022/07/20 05:45:11;;;;;;;8.93;8.00;;;28.10;1.00;;;28.20;36.44;101288.50;4851333;29;20492;-71
2022/07/20 05:47:42;;;;;;;9.03;7.97;;;27.60;1.00;;;27.79;37.67;101286.50;4852713;29;20477;-71
2022/07/20 05:50:11;;;;;;;11.70;8.20;;;27.10;1.00;;;27.68;37.69;101290.63;4857952;29;20496;-72
2022/07/20 05:52:40;;;;;;;8.97;8.03;;;26.90;1.00;;;27.46;37.93;101284.88;4849502;29;20473;-72
2022/07/20 05:55:10;;;;;;;9.33;8.43;;;26.70;1.00;;;27.35;37.88;101288.97;4865674;29;20894;-72
2022/07/20 05:57:39;;;;;;;8.13;7.33;;;26.70;1.00;;;27.20;38.17;101290.06;4855314;29;20488;-70
2022/07/20 06:00:11;;;;;;;8.60;7.73;;;26.60;1.00;;;27.14;38.63;101286.56;4861127;29;20447;-72
2022/07/20 06:02:41;;;;;;;9.67;8.77;;;26.50;1.00;;;27.32;38.18;101289.56;4847332;29;20452;-73
2022/07/20 06:05:10;;;;;;;9.13;7.67;;;26.50;1.00;;;27.42;38.18;101286.63;4863099;29;20444;-72
2022/07/20 06:07:40;;;;;;;8.87;7.97;;;26.60;1.00;;;27.39;38.15;101284.47;4857392;29;20894;-72
2022/07/20 06:10:14;;;;;;;8.27;7.47;;;26.60;1.00;;;27.56;38.42;101287.50;4858511;29;20438;-71
2022/07/20 06:12:43;;;;;;;9.07;7.80;;;26.70;1.00;;;27.60;38.23;101288.53;4855727;29;20845;-70
2022/07/20 06:15:12;;;;;;;8.17;7.43;;;26.70;1.00;;;27.71;37.86;101294.72;4856867;29;20790;-72
2022/07/20 06:17:43;;;;;;;9.20;8.37;;;26.90;1.00;;;27.64;37.64;101290.38;4854291;29;20451;-70
2022/07/20 06:20:16;;;;;;;8.33;7.40;;;27.00;1.00;;;27.81;37.72;101291.75;4855897;29;20547;-71
2022/07/20 06:22:46;;;;;;;9.77;7.63;;;27.10;1.00;;;28.00;37.71;101293.31;4849823;29;20575;-71
2022/07/20 06:25:17;;;;;;;9.00;7.50;;;27.10;1.00;;;28.12;36.74;101295.63;4862411;29;20481;-71
2022/07/20 06:27:46;;;;;;;8.97;7.90;;;27.20;1.00;;;28.10;36.94;101293.09;4858066;29;20478;-70
2022/07/20 06:30:16;;;;;;;8.27;7.43;;;27.20;1.00;;;28.18;37.10;101293.53;4861652;29;20415;-72
2022/07/20 06:32:46;;;;;;;9.87;8.83;;;27.30;1.00;;;28.37;36.85;101294.25;4859285;29;20511;-72
2022/07/20 06:35:16;;;;;;;10.60;8.27;;;27.50;1.00;;;28.52;36.49;101299.47;4859510;29;20536;-72
2022/07/20 06:37:45;;;;;;;10.80;8.13;;;27.70;1.00;;;28.72;36.27;101301.81;4859898;29;20886;-72
2022/07/20 06:40:15;;;;;;;7.50;6.80;;;27.90;1.00;;;28.85;35.96;101302.94;4860582;29;21028;-71
2022/07/20 06:42:44;;;;;;;9.87;8.87;;;28.00;1.00;;;28.82;36.20;101307.16;4862898;29;21007;-71
2022/07/20 06:45:13;;;;;;;13.50;8.73;;;28.00;1.00;;;28.79;36.53;101310.56;4862414;29;20475;-71
2022/07/20 06:47:42;;;;;;;9.00;8.20;;;28.10;1.00;;;28.74;36.27;101302.34;4857538;29;20491;-72
2022/07/20 06:50:13;;;;;;;11.23;7.87;;;28.00;1.00;;;28.88;36.03;101308.69;4852417;29;20452;-72
2022/07/20 06:52:42;;;;;;;10.63;8.37;;;28.20;1.00;;;28.88;36.91;101314.25;4856476;29;20924;-71
2022/07/20 06:55:11;;;;;;;9.43;8.43;;;28.20;1.00;;;29.05;36.28;101309.97;4858334;29;20500;-71
2022/07/20 06:57:40;;;;;;;12.50;8.97;;;28.30;1.00;;;29.11;36.20;101309.50;4859937;29;20483;-72
2022/07/20 07:00:11;;;;;;;8.70;7.53;;;28.50;1.00;;;29.24;35.88;101311.41;4864408;29;20853;-72
2022/07/20 07:02:45;;;;;;;9.73;8.57;;;28.50;1.00;;;29.44;36.08;101309.25;4855462;29;20471;-72
2022/07/20 07:05:16;;;;;;;12.83;8.33;;;28.60;1.00;;;29.60;35.74;101308.56;4852786;29;20535;-71
2022/07/20 07:07:45;;;;;;;12.57;9.10;;;28.80;1.00;;;29.87;35.34;101312.31;4857832;29;20592;-71
2022/07/20 07:10:14;;;;;;;13.00;7.93;;;29.00;1.00;;;29.97;35.05;101310.06;4858193;29;20452;-72
2022/07/20 07:12:43;;;;;;;9.77;7.57;;;29.20;1.00;;;30.08;34.83;101310.59;4857733;29;20438;-71
2022/07/20 07:15:13;;;;;;;8.17;7.47;;;29.40;1.00;;;30.13;34.65;101304.88;4857605;29;20440;-73
2022/07/20 07:17:42;;;;;;;9.60;7.40;;;29.50;1.00;;;30.27;34.25;101304.75;4854055;29;20410;-72
2022/07/20 07:20:12;;;;;;;11.83;7.20;;;29.70;1.00;;;30.30;34.32;101302.13;4855931;29;20456;-72
2022/07/20 07:22:53;;;;;;;6.83;6.23;;;29.70;1.00;;;30.48;34.07;101301.06;4855459;29;20486;-72
2022/07/20 07:25:22;;;;;;;7.87;7.20;;;29.80;1.00;;;30.59;33.48;101307.16;4855645;29;20453;-72
2022/07/20 07:27:51;;;;;;;10.03;7.73;;;29.90;1.00;;;30.78;33.44;101304.88;4856252;29;20482;-71
2022/07/20 07:30:20;;;;;;;8.30;7.50;;;30.00;1.00;;;30.64;33.49;101309.78;4851372;29;21050;-72
2022/07/20 07:32:49;;;;;;;8.57;7.77;;;29.90;1.00;;;30.83;33.42;101295.50;4853492;29;20546;-71
2022/07/20 07:35:19;;;;;;;6.97;6.00;;;30.10;1.00;;;31.00;33.24;101295.47;4853928;29;20455;-72
2022/07/20 07:37:49;;;;;;;11.63;7.90;;;30.30;1.00;;;31.19;32.77;101303.53;4849620;29;20445;-71
2022/07/20 07:40:19;;;;;;;9.10;7.53;;;30.50;1.00;;;31.39;32.44;101303.69;4859432;29;20481;-70
2022/07/20 07:42:48;;;;;;;11.83;7.70;;;30.70;1.00;;;31.41;32.79;101301.38;4856665;29;20686;-72
2022/07/20 07:45:17;;;;;;;7.87;7.03;;;30.70;1.00;;;31.56;32.32;101308.44;4852614;29;20451;-71
2022/07/20 07:47:47;;;;;;;19.53;10.50;;;30.90;1.00;;;31.62;32.12;101311.88;4854884;29;20449;-70
2022/07/20 07:50:16;;;;;;;7.83;6.63;;;31.00;1.00;;;31.81;32.02;101309.50;4849454;29;20560;-72
2022/07/20 07:52:46;;;;;;;9.07;8.17;;;31.10;1.00;;;31.43;32.42;101317.81;4851913;29;20472;-71
2022/07/20 07:55:26;;;;;;;10.47;7.40;;;30.90;1.00;;;31.43;32.47;101306.63;4854972;29;20444;-73
2022/07/20 07:57:55;;;;;;;8.70;7.93;;;30.90;1.00;;;31.60;32.19;101303.00;4854489;29;20447;-71
2022/07/20 08:00:35;;;;;;;9.97;7.43;;;31.00;1.00;;;31.84;32.42;101308.84;4858017;29;20448;-72
2022/07/20 08:03:05;;;;;;;10.07;7.87;;;31.20;1.00;;;32.10;32.37;101300.31;4853430;29;20842;-72
2022/07/20 08:05:34;;;;;;;7.30;6.60;;;31.40;1.00;;;32.16;32.11;101305.41;4851513;29;20562;-74
2022/07/20 08:08:09;;;;;;;15.27;8.30;;;31.50;1.00;;;32.01;31.97;101297.56;4855519;29;20931;-72
2022/07/20 08:10:41;;;;;;;8.87;7.63;;;31.70;1.00;;;31.96;32.10;101294.94;4853504;29;20480;-72
2022/07/20 08:13:11;;;;;;;11.70;8.07;;;31.40;1.00;;;32.02;32.20;101292.78;4854161;29;20459;-72
2022/07/20 08:15:40;;;;;;;9.37;7.90;;;31.40;1.00;;;32.16;32.03;101299.00;4855578;29;20500;-72
2022/07/20 08:18:17;;;;;;;10.13;7.50;;;31.60;1.00;;;32.29;31.94;101303.56;4858609;29;20440;-71
2022/07/20 08:20:47;;;;;;;9.23;8.23;;;31.70;1.00;;;32.46;31.51;101302.59;4854320;29;20951;-71
2022/07/20 08:23:16;;;;;;;8.97;8.07;;;31.90;1.00;;;32.55;31.84;101307.00;4855089;29;20979;-71
2022/07/20 08:25:47;;;;;;;8.93;7.70;;;32.00;1.00;;;32.60;31.20;101305.97;4854268;29;20531;-71
2022/07/20 08:28:20;;;;;;;10.00;7.20;;;32.10;1.00;;;32.74;31.53;101303.75;4852670;29;20531;-72
2022/07/20 08:30:53;;;;;;;12.00;7.97;;;32.20;1.00;;;32.91;30.50;101300.81;4855025;29;20588;-72
2022/07/20 08:33:25;;;;;;;6.77;6.17;;;32.30;1.00;;;32.92;30.27;101310.03;4866049;29;20512;-73
2022/07/20 08:35:56;;;;;;;7.13;6.43;;;32.40;1.00;;;32.98;30.52;101303.88;4850399;29;20460;-73
2022/07/20 08:38:27;;;;;;;14.13;8.10;;;32.40;1.00;;;33.15;30.44;101309.38;4852192;29;20502;-73
2022/07/20 08:40:58;;;;;;;8.43;7.70;;;32.50;1.00;;;33.40;30.19;101315.06;4853300;29;20544;-74
2022/07/20 08:43:29;;;;;;;8.60;7.33;;;32.70;1.00;;;33.31;30.07;101305.91;4854035;29;20476;-72
2022/07/20 08:45:59;;;;;;;11.50;8.60;;;32.80;1.00;;;33.07;30.26;101306.59;4845657;29;20914;-72
2022/07/20 08:48:28;;;;;;;8.10;7.30;;;32.70;1.00;;;33.07;30.14;101301.81;4850416;29;20696;-72
2022/07/20 08:50:58;;;;;;;7.80;7.10;;;32.70;1.00;;;33.02;30.34;101302.00;4851043;29;20441;-71
2022/07/20 08:53:28;;;;;;;10.40;7.30;;;32.60;1.00;;;33.28;29.95;101300.97;4848613;29;20535;-71
2022/07/20 08:55:58;;;;;;;9.30;6.17;;;32.80;1.00;;;33.31;29.47;101309.50;4851094;29;20442;-71
2022/07/20 08:58:27;;;;;;;7.13;6.47;;;32.90;1.00;;;33.46;29.09;101302.44;4854511;29;20884;-72
2022/07/20 09:00:56;;;;;;;6.27;5.70;;;32.90;1.00;;;33.60;29.14;101302.94;4850710;29;20784;-71
2022/07/20 09:03:26;;;;;;;7.63;6.57;;;33.00;1.00;;;33.89;29.39;101299.97;4852630;29;20470;-72
2022/07/20 09:06:06;;;;;;;7.57;6.63;;;33.30;1.00;;;34.09;28.92;101291.78;4852755;29;20852;-72
2022/07/20 09:08:35;;;;;;;8.10;6.13;;;33.50;1.00;;;34.28;28.58;101294.84;4853740;29;20450;-73
2022/07/20 09:11:08;;;;;;;7.87;6.87;;;33.70;1.00;;;34.41;27.92;101296.47;4852939;29;20472;-72
2022/07/20 09:13:42;;;;;;;7.53;6.83;;;33.80;1.00;;;34.46;27.52;101291.44;4851317;29;20562;-71
2022/07/20 09:16:12;;;;;;;7.53;6.70;;;33.90;1.00;;;34.63;28.15;101287.53;4852098;29;20459;-72
2022/07/20 09:18:41;;;;;;;8.13;7.33;;;34.10;1.00;;;34.83;28.14;101289.38;4854617;29;20443;-72
2022/07/20 09:21:11;;;;;;;7.00;6.40;;;34.30;1.00;;;34.71;27.94;101292.19;4848904;29;20444;-72
2022/07/20 09:23:52;;;;;;;7.73;6.83;;;34.30;1.00;;;34.77;27.43;101287.16;4849973;29;21048;-73
2022/07/20 09:26:25;;;;;;;7.47;6.63;;;34.30;1.00;;;34.86;27.50;101285.81;4849402;29;20478;-72
2022/07/20 09:28:57;;;;;;;7.23;6.23;;;34.40;1.00;;;34.88;27.40;101280.69;4856270;29;20483;-72
2022/07/20 09:31:30;;;;;;;7.50;5.60;;;34.40;1.00;;;34.89;26.93;101282.31;4849778;29;20459;-72
2022/07/20 09:34:15;;;;;;;11.90;6.60;;;34.40;1.00;;;35.03;26.89;101281.09;4862020;29;20543;-72
2022/07/20 09:36:47;;;;;;;15.80;5.80;;;34.40;1.00;;;35.16;26.31;101285.47;4861756;29;20459;-73
2022/07/20 09:39:18;;;;;;;7.50;6.40;;;34.60;1.00;;;35.25;25.58;101289.78;4859101;29;20470;-72
2022/07/20 09:41:56;;;;;;;7.50;6.77;;;34.60;1.00;;;35.28;25.70;101288.28;4859593;29;20488;-71
2022/07/20 09:44:28;;;;;;;7.60;7.00;;;34.70;1.00;;;35.49;25.84;101286.00;4882290;29;20465;-72
2022/07/20 09:46:58;;;;;;;8.93;7.17;;;34.90;1.00;;;35.36;24.93;101273.22;4861934;29;20466;-71
2022/07/20 09:49:34;;;;;;;6.17;5.67;;;35.00;1.00;;;35.36;24.38;101281.66;4866054;29;20551;-71
2022/07/20 09:52:06;;;;;;;9.67;4.90;;;34.90;1.00;;;35.47;24.72;101274.31;4860080;29;20439;-71
2022/07/20 09:54:55;;;;;;;13.67;6.10;;;35.00;1.00;;;35.73;24.30;101268.16;4854447;29;20439;-72
2022/07/20 09:57:26;;;;;;;5.33;4.83;;;35.20;1.00;;;35.92;24.73;101275.91;4850984;29;20477;-71
2022/07/20 09:59:55;;;;;;;5.90;5.23;;;35.40;1.00;;;36.11;24.58;101275.97;4859330;29;20460;-72
2022/07/20 10:02:28;;;;;;;6.10;5.50;;;35.50;1.00;;;36.02;24.44;101278.97;4857676;29;20482;-71
2022/07/20 10:04:59;;;;;;;6.73;5.47;;;35.50;1.00;;;35.67;24.48;101272.47;4854229;29;20448;-71
2022/07/20 10:07:29;;;;;;;8.10;5.77;;;35.40;1.00;;;35.50;24.46;101281.22;4854986;29;21006;-71
2022/07/20 10:10:00;;;;;;;6.33;5.77;;;35.10;1.00;;;35.56;24.67;101271.31;4859174;29;20473;-71
2022/07/20 10:12:30;;;;;;;6.37;5.77;;;35.20;1.00;;;35.61;24.60;101268.25;4856219;29;20549;-71
2022/07/20 10:15:03;;;;;;;6.10;5.60;;;35.10;1.00;;;35.71;24.58;101267.72;4859797;29;20499;-70
2022/07/20 10:17:36;;;;;;;6.00;5.60;;;35.20;1.00;;;35.95;24.48;101269.53;4901062;23;20594;-71
2022/07/20 10:20:09;;;;;;;6.30;5.80;;;35.40;1.00;;;36.33;24.00;101261.22;4895765;29;20771;-70
2022/07/20 10:22:38;;;;;;;6.23;5.63;;;35.60;1.00;;;36.57;23.63;101269.41;4884918;29;20864;-70
2022/07/20 10:25:17;;;;;;;5.90;5.30;;;35.90;1.00;;;36.69;23.72;101262.03;4875405;29;20511;-69
2022/07/20 10:27:48;;;;;;;10.33;6.23;;;36.10;1.00;;;36.86;23.96;101250.31;4869334;29;20438;-70
2022/07/20 10:30:19;;;;;;;5.73;5.10;;;36.10;1.00;;;36.72;23.21;101256.47;4872184;29;20591;-70
2022/07/20 10:33:00;;;;;;;8.47;5.30;;;36.20;1.00;;;36.63;22.95;101255.06;4869202;29;20721;-71
2022/07/20 10:35:31;;;;;;;6.20;5.60;;;36.10;1.00;;;36.55;23.21;101257.69;4868116;29;20530;-69